Aérodrome :
LOGIN :

S'inscrire | Disclaimer

   EN    FR    IT 

 










Légende :    VFR   VFR Marginal   IFR   IFR Intensif   IFR Très Intensif
Visi : 
Plafond : 
>= 8 km
>= 3000ft
5 à 8 km
1000 à 3000 ft
1500m à 5 km
500 à 1000 ft
800 à 1500m
200 à 500 ft
< 800m
< 200 ft
Symboles :   Orages  Brouillard  Fortes neiges  Fortes précipitations  Vent > 20 kt
SIGMETs :   Divers  Orages  Givrage  Turbulence  Onde Orograph.  Cendres Volcan.






- Altitude de l'aérodrome : 580 ft


LFOA - Avord

DERNIER METAR :
  • 182230Z AUTO 08003KT CAVOK 21/15 Q1019 NOSIG

METARs EXPIRÉS :
  • 182200Z AUTO 08004KT CAVOK 21/14 Q1019 NOSIG
  • 182130Z AUTO 07003KT CAVOK 21/15 Q1019 NOSIG
  • 182100Z AUTO 08003KT CAVOK 23/15 Q1019 NOSIG
  • 182030Z AUTO 09004KT CAVOK 24/15 Q1019 NOSIG
  • 182000Z AUTO 10004KT 5000 1100 R24/P2000 HZ NSC 25/15 Q1019 NOSIG
  • 181930Z AUTO 09003KT CAVOK 26/15 Q1018 NOSIG
  • 181900Z AUTO 10004KT CAVOK 27/15 Q1018 NOSIG
  • 181830Z AUTO 10005KT CAVOK 28/15 Q1018 NOSIG
  • 181800Z AUTO 10006KT 080V180 CAVOK 29/14 Q1018 NOSIG

TAF TAF LFOA
Valide du 18 à 21h jusqu'au 19 à 21h UTC


182000Z 1821/1921 09005KT CAVOK TX34/1915Z TN17/1905Z
BECMG 1907/1909 26010KT
TEMPO 1914/1921 VRB10G25KT 4000 SHRA BKN040CB
PROB40
TEMPO 1914/1921 VRB15G35KT 2000 TSRAGS SCT010 BKN035CB



MET'MAP, la Météo Aéronautique d'un coup d'oeil ! - Copyright ORBIFLY Décembre 2007 - Disclaimer

ORBIFLY MET'MAP TEAM :

Programmation & Développement : Alexandra Zaïnal
Sur une idée originale de : Baudouin d'Aumeries
Soutien technique & logistique : Manuel Goepfert
Assistance : Marc-Olivier Méhu




SOURCES & CREDITS :

   NOAA